Time;durP1;ratioP1;P1;durP2;ratioP2;P2;SDS_P1;SDS_P2;PMS_P1;PMS_P2;Temp;Humidity;BMP_temperature;BMP_pressure;BME280_temperature;BME280_humidity;BME280_pressure;Samples;Min_cycle;Max_cycle;Signal;HPM_P1;HPM_P2
2021/08/13 00:02:04;;;;;;;37.10;11.33;;;;;;;18.55;70.37;101342.59;1802664;78;21025;-60
2021/08/13 00:04:34;;;;;;;25.85;10.55;;;;;;;18.49;70.75;101342.96;1797918;78;21138;-59
2021/08/13 00:07:04;;;;;;;24.30;11.05;;;;;;;18.42;70.78;101344.27;1788175;78;21426;-60
2021/08/13 00:09:31;;;;;;;28.12;11.25;;;;;;;18.33;71.35;101343.85;1746099;80;21422;-63
2021/08/13 00:11:58;;;;;;;26.55;10.93;;;;;;;18.28;71.58;101348.69;1728286;81;21159;-64
2021/08/13 00:14:27;;;;;;;23.32;10.90;;;;;;;18.26;71.91;101351.97;1732837;82;21360;-64
2021/08/13 00:16:56;;;;;;;33.08;10.72;;;;;;;18.23;72.29;101357.55;1739399;82;21060;-64
2021/08/13 00:19:23;;;;;;;26.48;10.38;;;;;;;18.20;72.24;101355.02;1737997;81;21088;-64
2021/08/13 00:21:52;;;;;;;18.62;10.25;;;;;;;18.20;72.42;101350.95;1740677;81;21049;-64
2021/08/13 00:24:19;;;;;;;24.67;9.95;;;;;;;18.19;72.54;101343.77;1738189;82;21064;-63
2021/08/13 00:26:47;;;;;;;27.48;10.13;;;;;;;18.19;72.67;101351.91;1735775;81;21068;-63
2021/08/13 00:29:15;;;;;;;28.65;10.20;;;;;;;18.18;72.76;101345.63;1737590;82;21123;-62
2021/08/13 00:31:42;;;;;;;30.57;10.95;;;;;;;18.16;72.94;101349.38;1746651;82;21963;-62
2021/08/13 00:34:09;;;;;;;22.48;10.23;;;;;;;18.09;73.31;101356.13;1744461;81;21070;-62
2021/08/13 00:36:39;;;;;;;25.50;11.03;;;;;;;18.01;73.64;101349.75;1713879;81;21119;-62
2021/08/13 00:39:06;;;;;;;29.50;10.32;;;;;;;17.97;73.97;101351.75;1720406;82;21136;-62
2021/08/13 00:41:34;;;;;;;31.25;14.05;;;;;;;17.93;74.42;101351.54;1730011;82;21031;-62
2021/08/13 00:44:04;;;;;;;34.60;13.58;;;;;;;17.92;74.57;101348.93;1719902;82;21139;-63
2021/08/13 00:46:33;;;;;;;38.85;21.10;;;;;;;17.90;74.82;101359.86;1746724;81;21056;-63
2021/08/13 00:49:05;;;;;;;44.83;25.97;;;;;;;17.90;75.00;101354.43;1707874;81;21056;-63
2021/08/13 00:51:39;;;;;;;50.63;29.07;;;;;;;17.88;75.12;101349.58;1748132;81;21064;-65
2021/08/13 00:54:08;;;;;;;34.15;20.15;;;;;;;17.88;75.25;101357.22;1746079;81;21040;-63
2021/08/13 00:56:37;;;;;;;34.88;20.52;;;;;;;17.88;75.51;101354.50;1737940;81;21144;-64
2021/08/13 00:59:09;;;;;;;23.57;12.65;;;;;;;17.89;75.47;101341.83;1729089;82;21100;-63
2021/08/13 01:01:40;;;;;;;21.33;10.03;;;;;;;17.88;75.45;101346.86;1736203;82;21041;-63
2021/08/13 01:04:09;;;;;;;26.80;9.63;;;;;;;17.86;75.38;101347.44;1741986;82;21076;-63
2021/08/13 01:06:36;;;;;;;22.13;10.30;;;;;;;17.84;75.37;101350.72;1741148;82;20973;-64
2021/08/13 01:09:04;;;;;;;26.00;13.58;;;;;;;17.86;75.37;101350.14;1745508;81;21130;-63
2021/08/13 01:11:54;;;;;;;23.60;14.63;;;;;;;17.88;75.32;101356.36;1745297;81;21072;-63
2021/08/13 01:14:47;;;;;;;35.78;16.45;;;;;;;17.89;75.25;101355.39;1737730;81;21080;-62
2021/08/13 01:17:14;;;;;;;20.68;11.10;;;;;;;17.88;75.16;101356.36;1728663;81;21518;-63
2021/08/13 01:20:27;;;;;;;24.95;9.78;;;;;;;17.88;75.28;101355.86;1741162;81;21014;-62
2021/08/13 01:23:20;;;;;;;25.40;8.95;;;;;;;17.88;75.20;101357.71;1731436;81;21146;-63
2021/08/13 01:25:52;;;;;;;23.00;8.53;;;;;;;17.84;75.31;101356.14;1675516;81;21109;-64
2021/08/13 01:28:35;;;;;;;19.25;8.68;;;;;;;17.82;75.39;101358.06;1732791;81;20986;-62
2021/08/13 01:31:18;;;;;;;29.07;9.13;;;;;;;17.82;75.47;101364.84;1718093;81;21038;-61
2021/08/13 01:33:48;;;;;;;33.98;9.03;;;;;;;17.82;75.54;101363.49;1711365;81;21083;-63
2021/08/13 01:36:17;;;;;;;23.12;9.00;;;;;;;17.83;75.58;101362.53;1739681;81;21101;-63
2021/08/13 01:38:45;;;;;;;38.78;9.50;;;;;;;17.84;75.61;101364.28;1736160;81;21548;-63
2021/08/13 01:41:13;;;;;;;27.55;8.68;;;;;;;17.82;75.60;101371.12;1682000;81;21141;-64
2021/08/13 01:43:43;;;;;;;18.67;8.98;;;;;;;17.81;75.65;101368.52;1777083;78;21142;-63
2021/08/13 01:46:13;;;;;;;22.95;9.93;;;;;;;17.78;75.75;101370.02;1783588;78;21061;-63
2021/08/13 01:48:43;;;;;;;30.23;10.60;;;;;;;17.75;75.88;101370.59;1784817;78;21004;-63
2021/08/13 01:51:17;;;;;;;40.10;17.57;;;;;;;17.74;76.04;101362.06;1776616;79;21604;-63
2021/08/13 01:53:46;;;;;;;41.13;20.08;;;;;;;17.72;76.04;101372.12;1794027;78;20981;-62
2021/08/13 01:56:17;;;;;;;33.65;12.68;;;;;;;17.73;75.95;101367.09;1781359;79;21043;-62
2021/08/13 01:58:46;;;;;;;17.65;8.53;;;;;;;17.75;75.87;101381.44;1778923;78;21011;-63
2021/08/13 02:01:17;;;;;;;20.80;8.50;;;;;;;17.76;75.87;101379.62;1757494;80;21000;-63
2021/08/13 02:03:46;;;;;;;26.25;8.58;;;;;;;17.75;75.85;101380.58;1771612;79;21497;-63
2021/08/13 02:06:13;;;;;;;18.10;7.90;;;;;;;17.72;75.79;101386.17;1782312;79;21076;-62
2021/08/13 02:08:42;;;;;;;14.65;7.60;;;;;;;17.65;75.96;101385.63;1789647;78;20999;-62
2021/08/13 02:11:12;;;;;;;21.52;8.35;;;;;;;17.61;76.13;101384.05;1766729;79;21517;-62
2021/08/13 02:13:42;;;;;;;15.70;7.00;;;;;;;17.54;76.45;101383.97;1799292;79;20921;-63
2021/08/13 02:16:14;;;;;;;23.98;8.00;;;;;;;17.50;76.67;101376.51;1778479;79;21035;-63
2021/08/13 02:18:49;;;;;;;14.35;7.33;;;;;;;17.50;76.89;101386.45;1778821;79;21002;-63
2021/08/13 02:21:18;;;;;;;21.93;7.53;;;;;;;17.49;76.85;101375.22;1772210;79;21010;-63
2021/08/13 02:23:45;;;;;;;19.00;7.33;;;;;;;17.48;76.87;101393.34;1796435;79;21084;-63
2021/08/13 02:26:15;;;;;;;15.98;7.05;;;;;;;17.41;76.98;101390.08;1792468;79;21188;-63
2021/08/13 02:28:45;;;;;;;17.07;7.17;;;;;;;17.37;77.24;101392.56;1789694;79;21036;-63
2021/08/13 02:31:14;;;;;;;31.75;6.85;;;;;;;17.33;77.55;101399.97;1703663;83;21022;-63
2021/08/13 02:33:42;;;;;;;19.15;6.30;;;;;;;17.30;77.65;101397.42;1741085;81;21088;-62
2021/08/13 02:36:14;;;;;;;20.15;6.85;;;;;;;17.25;77.84;101394.09;1737499;82;21095;-62
2021/08/13 02:38:54;;;;;;;14.00;7.20;;;;;;;17.22;77.93;101395.58;1720157;82;21035;-62
2021/08/13 02:41:22;;;;;;;15.72;6.53;;;;;;;17.18;78.18;101407.08;1738941;82;20969;-63
2021/08/13 02:43:58;;;;;;;18.48;7.30;;;;;;;17.13;78.27;101394.27;1740752;82;21015;-62
2021/08/13 02:46:27;;;;;;;12.40;6.12;;;;;;;17.10;78.59;101398.45;1735858;82;21017;-63
2021/08/13 02:48:55;;;;;;;17.67;7.00;;;;;;;17.06;78.89;101396.02;1735164;82;21058;-63
2021/08/13 02:51:22;;;;;;;13.98;6.33;;;;;;;17.01;79.02;101394.39;1745070;81;21088;-63
2021/08/13 02:53:49;;;;;;;12.28;6.22;;;;;;;17.03;79.17;101402.45;1733685;82;21945;-63
2021/08/13 02:56:18;;;;;;;14.73;6.85;;;;;;;17.03;79.17;101406.05;1729628;82;21091;-63
2021/08/13 02:58:50;;;;;;;15.93;6.40;;;;;;;17.01;79.17;101402.52;1797082;79;21482;-63
2021/08/13 03:01:24;;;;;;;15.35;6.53;;;;;;;17.00;79.25;101406.68;1787657;79;21069;-64
2021/08/13 03:03:54;;;;;;;19.57;6.20;;;;;;;16.96;79.25;101398.29;1794962;79;22102;-63
2021/08/13 03:06:27;;;;;;;17.55;6.87;;;;;;;16.93;79.47;101400.66;1804160;79;21608;-64
2021/08/13 03:08:54;;;;;;;13.05;5.90;;;;;;;16.95;79.53;101404.17;1776618;79;21469;-63
2021/08/13 03:11:21;;;;;;;18.42;6.67;;;;;;;16.97;79.59;101408.17;1744037;79;21052;-64
2021/08/13 03:13:50;;;;;;;15.05;7.08;;;;;;;16.98;79.54;101408.56;1718552;78;21047;-62
2021/08/13 03:16:19;;;;;;;19.12;7.60;;;;;;;17.00;79.56;101416.16;1819286;78;21043;-59
2021/08/13 03:18:48;;;;;;;13.15;7.15;;;;;;;16.99;79.55;101410.34;1818985;78;21058;-60
2021/08/13 03:21:18;;;;;;;13.80;7.10;;;;;;;16.98;79.68;101416.69;1814173;78;21026;-59
2021/08/13 03:23:45;;;;;;;12.53;6.62;;;;;;;17.00;79.77;101416.16;1811238;78;21115;-59
2021/08/13 03:26:14;;;;;;;21.62;6.53;;;;;;;17.03;79.81;101411.47;1808914;78;21501;-61
2021/08/13 03:28:41;;;;;;;20.08;7.55;;;;;;;17.09;79.62;101421.09;1812087;78;21781;-60
2021/08/13 03:31:25;;;;;;;15.13;7.47;;;;;;;17.14;79.63;101429.87;1814972;78;21488;-59
2021/08/13 03:33:54;;;;;;;26.15;8.00;;;;;;;17.20;79.51;101422.38;1805309;78;21287;-60
2021/08/13 03:36:23;;;;;;;14.45;7.35;;;;;;;17.26;79.19;101428.83;1808917;78;21433;-60
2021/08/13 03:41:33;;;;;;;27.87;11.80;;;;;;;17.32;78.88;101427.13;1804796;78;21778;-59
2021/08/13 03:44:01;;;;;;;29.00;11.68;;;;;;;17.39;78.70;101427.23;1805111;78;22188;-60
2021/08/13 03:46:28;;;;;;;26.33;12.85;;;;;;;17.49;78.43;101436.21;1817612;78;20972;-59
2021/08/13 03:48:56;;;;;;;21.85;8.30;;;;;;;17.58;77.84;101433.03;1820218;78;21008;-61
2021/08/13 03:51:24;;;;;;;18.80;7.40;;;;;;;17.63;77.67;101435.00;1801901;78;21098;-60
2021/08/13 03:53:53;;;;;;;16.67;7.78;;;;;;;17.71;77.67;101438.66;1810423;78;21546;-60
2021/08/13 03:56:21;;;;;;;22.48;9.03;;;;;;;17.83;77.07;101435.27;1813257;78;21545;-60
2021/08/13 03:58:48;;;;;;;24.32;8.18;;;;;;;17.94;76.77;101437.38;1812160;78;21058;-60
2021/08/13 04:01:16;;;;;;;23.73;9.70;;;;;;;18.06;76.48;101445.35;1822389;78;21071;-60
2021/08/13 04:03:44;;;;;;;24.85;9.70;;;;;;;18.15;75.96;101446.22;1819803;78;21000;-60
2021/08/13 04:06:11;;;;;;;23.77;10.05;;;;;;;18.25;75.75;101442.50;1810033;78;21173;-60
2021/08/13 04:08:38;;;;;;;31.07;14.07;;;;;;;18.37;75.42;101445.47;1810163;78;20948;-60
2021/08/13 04:11:06;;;;;;;30.75;12.45;;;;;;;18.51;74.79;101448.74;1814374;78;21083;-60
2021/08/13 04:13:35;;;;;;;30.37;10.25;;;;;;;18.61;74.43;101449.98;1810392;78;21058;-61
2021/08/13 04:16:06;;;;;;;46.02;19.57;;;;;;;18.74;74.05;101451.50;1740185;81;21128;-61
2021/08/13 04:18:34;;;;;;;36.25;17.73;;;;;;;18.85;73.21;101453.59;1793444;78;21504;-60
2021/08/13 04:21:02;;;;;;;39.23;21.25;;;;;;;18.95;72.75;101460.70;1785855;78;21056;-60
2021/08/13 04:23:30;;;;;;;37.13;15.70;;;;;;;19.02;72.42;101455.32;1783871;79;21036;-59
2021/08/13 04:26:00;;;;;;;45.70;22.10;;;;;;;19.13;72.31;101461.47;1782722;78;21027;-60
2021/08/13 04:28:29;;;;;;;48.20;22.77;;;;;;;19.24;71.63;101454.03;1786818;78;21012;-60
2021/08/13 04:30:57;;;;;;;43.45;19.52;;;;;;;19.33;71.32;101448.02;1782504;78;21122;-61
2021/08/13 04:33:24;;;;;;;39.08;20.57;;;;;;;19.47;70.77;101453.50;1792310;78;21556;-58
2021/08/13 04:36:03;;;;;;;44.10;26.05;;;;;;;19.56;69.73;101457.97;1801273;78;21031;-59
2021/08/13 04:38:30;;;;;;;41.98;24.37;;;;;;;19.61;69.38;101464.02;1797481;78;21032;-59
2021/08/13 04:41:15;;;;;;;58.02;23.60;;;;;;;19.65;69.05;101465.58;1787709;78;21058;-59
2021/08/13 04:43:45;;;;;;;47.23;18.82;;;;;;;19.76;69.27;101467.13;1778807;78;21919;-59
2021/08/13 04:46:13;;;;;;;35.70;15.38;;;;;;;19.87;68.74;101473.75;1793887;78;21061;-58
2021/08/13 04:48:41;;;;;;;33.50;15.80;;;;;;;19.95;68.53;101469.22;1794031;78;21044;-59
2021/08/13 04:51:08;;;;;;;42.45;21.37;;;;;;;20.03;68.11;101473.20;1780180;78;21095;-59
2021/08/13 04:53:37;;;;;;;40.15;23.30;;;;;;;20.13;67.95;101478.05;1780854;78;22089;-60
2021/08/13 04:56:05;;;;;;;59.65;38.42;;;;;;;20.26;66.75;101476.77;1783090;78;21815;-60
2021/08/13 04:58:34;;;;;;;61.33;39.95;;;;;;;20.37;65.31;101486.50;1787154;78;21062;-60
2021/08/13 05:01:00;;;;;;;64.80;38.78;;;;;;;20.45;64.58;101500.98;1787561;78;21047;-59
2021/08/13 05:03:28;;;;;;;60.67;39.95;;;;;;;20.51;63.69;101484.70;1786897;78;21056;-63
2021/08/13 05:05:56;;;;;;;53.75;33.73;;;;;;;20.53;63.59;101512.23;1797728;78;21520;-63
2021/08/13 05:08:23;;;;;;;39.95;24.02;;;;;;;20.57;63.40;101485.17;1784585;78;21138;-63
2021/08/13 05:10:52;;;;;;;48.48;31.52;;;;;;;20.64;62.57;101490.21;1779008;79;21025;-63
2021/08/13 05:13:20;;;;;;;73.40;45.55;;;;;;;20.70;62.56;101492.55;1783823;79;21633;-63
2021/08/13 05:15:48;;;;;;;58.83;34.80;;;;;;;20.78;62.21;101496.99;1747817;81;21026;-62
2021/08/13 05:18:16;;;;;;;48.78;26.35;;;;;;;20.91;62.33;101487.53;1756101;80;21133;-64
2021/08/13 05:20:44;;;;;;;46.68;28.70;;;;;;;21.10;61.55;101500.78;1746648;81;21047;-64
2021/08/13 05:23:11;;;;;;;26.62;17.00;;;;;;;21.16;61.22;101503.11;1807788;78;21035;-64
2021/08/13 05:25:40;;;;;;;42.43;26.80;;;;;;;21.26;60.89;101502.47;1816870;78;21064;-64
2021/08/13 05:28:08;;;;;;;43.00;21.70;;;;;;;21.39;60.32;101496.56;1807992;78;21063;-64
2021/08/13 05:30:37;;;;;;;35.90;21.27;;;;;;;21.52;60.17;101510.70;1811428;78;21066;-64
2021/08/13 05:33:05;;;;;;;31.75;19.42;;;;;;;21.70;59.29;101501.77;1812638;78;20999;-64
2021/08/13 05:35:33;;;;;;;42.98;26.27;;;;;;;21.82;58.47;101498.16;1824932;78;20976;-64
2021/08/13 05:38:04;;;;;;;42.13;26.23;;;;;;;21.94;57.77;101511.42;1824345;78;20983;-64
2021/08/13 05:40:46;;;;;;;20.62;13.43;;;;;;;22.04;57.81;101516.62;1820940;78;21091;-63
2021/08/13 05:43:13;;;;;;;50.50;30.02;;;;;;;22.14;56.39;101511.84;1777243;80;21058;-64
2021/08/13 05:45:41;;;;;;;39.95;24.92;;;;;;;22.22;56.59;101501.26;1746847;81;21137;-64
2021/08/13 05:48:10;;;;;;;50.60;23.38;;;;;;;22.31;56.34;101504.67;1804317;78;21048;-64
2021/08/13 05:50:39;;;;;;;45.38;29.30;;;;;;;22.40;56.04;101509.06;1814990;78;21489;-64
2021/08/13 05:53:09;;;;;;;36.77;15.38;;;;;;;22.50;55.88;101515.65;1804921;78;22374;-64
2021/08/13 05:55:37;;;;;;;41.50;23.73;;;;;;;22.63;55.68;101517.45;1809283;78;21513;-64
2021/08/13 05:58:10;;;;;;;33.85;17.32;;;;;;;22.77;55.62;101514.58;1804009;78;21091;-65
2021/08/13 06:00:37;;;;;;;25.23;6.42;;;;;;;22.93;55.04;101513.43;1806561;78;21012;-64
2021/08/13 06:03:06;;;;;;;14.38;4.87;;;;;;;23.04;53.34;101517.09;1809731;78;21044;-65
2021/08/13 06:05:35;;;;;;;26.57;5.80;;;;;;;23.11;52.54;101519.34;1807915;78;21068;-65
2021/08/13 06:08:05;;;;;;;18.85;5.28;;;;;;;23.17;52.70;101522.49;1801137;78;20960;-64
2021/08/13 06:10:32;;;;;;;16.73;5.58;;;;;;;23.26;52.49;101521.43;1804807;78;21751;-63
2021/08/13 06:12:59;;;;;;;22.80;6.25;;;;;;;23.34;51.61;101524.95;1798988;78;21212;-63
2021/08/13 06:15:28;;;;;;;20.80;8.05;;;;;;;23.40;51.74;101525.83;1778705;78;21056;-65
2021/08/13 06:20:32;;;;;;;18.60;7.05;;;;;;;23.64;51.73;101520.31;1760161;79;20996;-64
2021/08/13 06:23:06;;;;;;;34.18;12.80;;;;;;;23.84;50.90;101528.82;1763146;79;22672;-65
2021/08/13 06:25:37;;;;;;;33.28;18.40;;;;;;;24.00;50.81;101518.88;1760966;79;20977;-63
2021/08/13 06:28:04;;;;;;;14.95;6.50;;;;;;;24.11;50.23;101532.63;1708927;82;21510;-63
2021/08/13 06:30:38;;;;;;;13.32;5.45;;;;;;;24.13;49.47;101531.12;1765056;79;21044;-65
2021/08/13 06:33:05;;;;;;;21.37;5.47;;;;;;;24.12;50.27;101527.52;1756591;79;21039;-64
2021/08/13 06:35:32;;;;;;;21.97;10.25;;;;;;;24.17;50.35;101526.64;1760534;80;21385;-64
2021/08/13 06:37:59;;;;;;;32.53;9.90;;;;;;;24.20;49.89;101522.77;1773383;78;21448;-64
2021/08/13 06:40:26;;;;;;;21.65;6.22;;;;;;;24.25;50.28;101524.66;1754028;79;21146;-65
2021/08/13 06:42:53;;;;;;;13.35;5.22;;;;;;;24.36;49.54;101543.45;1769078;79;21088;-64
2021/08/13 06:45:23;;;;;;;15.55;5.30;;;;;;;24.41;49.01;101520.16;1774043;78;21119;-64
2021/08/13 06:47:51;;;;;;;14.33;5.00;;;;;;;24.39;48.77;101529.49;1764593;79;21180;-65
2021/08/13 06:50:19;;;;;;;12.53;4.58;;;;;;;24.34;48.81;101529.89;1775009;79;21598;-64
2021/08/13 06:52:47;;;;;;;12.50;4.75;;;;;;;24.28;49.36;101539.47;1763122;79;21060;-64
2021/08/13 06:55:14;;;;;;;11.28;4.35;;;;;;;24.23;48.85;101552.68;1761377;79;21016;-65
2021/08/13 06:57:42;;;;;;;10.53;3.92;;;;;;;24.17;49.11;101540.83;1768015;78;21096;-65
2021/08/13 07:00:13;;;;;;;16.05;5.03;;;;;;;24.14;49.04;101536.97;1766934;79;21063;-65
2021/08/13 07:02:46;;;;;;;8.18;4.47;;;;;;;24.18;49.54;101538.45;1765347;79;21037;-65
2021/08/13 07:05:10;;;;;;;21.93;5.22;;;;;;;24.20;48.81;101547.42;1762588;78;21016;-66
2021/08/13 07:07:37;;;;;;;12.03;4.55;;;;;;;24.22;49.13;101555.53;1773073;78;21000;-64
2021/08/13 07:10:07;;;;;;;12.28;4.08;;;;;;;24.25;48.30;101545.20;1731648;80;21453;-64
2021/08/13 07:12:34;;;;;;;20.75;4.72;;;;;;;24.32;48.65;101551.06;1766136;78;21137;-65
2021/08/13 07:15:02;;;;;;;6.60;3.75;;;;;;;24.42;48.24;101542.94;1747858;79;21537;-61
2021/08/13 07:17:30;;;;;;;10.32;4.40;;;;;;;24.51;47.97;101547.69;1730585;82;21080;-60
2021/08/13 07:19:58;;;;;;;13.58;4.37;;;;;;;24.58;48.11;101534.35;1721364;82;21064;-64
2021/08/13 07:22:25;;;;;;;20.52;5.03;;;;;;;24.66;47.87;101541.95;1758699;79;21071;-64
2021/08/13 07:24:53;;;;;;;14.63;5.37;;;;;;;24.68;48.09;101535.31;1755505;80;21110;-64
2021/08/13 07:27:19;;;;;;;12.98;3.83;;;;;;;24.75;47.06;101550.80;1758639;79;21131;-65
2021/08/13 07:29:47;;;;;;;11.33;3.55;;;;;;;24.76;46.77;101549.80;1763148;80;20996;-58
2021/08/13 07:32:16;;;;;;;11.40;4.22;;;;;;;24.78;45.75;101538.20;1732518;80;21239;-65
2021/08/13 07:34:43;;;;;;;12.73;3.47;;;;;;;24.84;46.52;101526.70;1757290;80;21084;-63
2021/08/13 07:37:10;;;;;;;7.78;3.62;;;;;;;24.97;46.03;101533.92;1755785;80;21226;-63
2021/08/13 07:39:37;;;;;;;13.00;3.70;;;;;;;25.10;45.40;101557.95;1762632;80;21605;-65
2021/08/13 07:42:07;;;;;;;6.87;3.45;;;;;;;25.20;44.69;101551.67;1758124;80;21067;-64
2021/08/13 07:44:35;;;;;;;10.32;3.62;;;;;;;25.21;44.36;101543.81;1761088;79;21059;-64
2021/08/13 07:47:03;;;;;;;10.08;3.77;;;;;;;25.21;44.44;101535.58;1723935;82;21087;-63
2021/08/13 07:49:30;;;;;;;16.77;5.08;;;;;;;25.28;44.45;101543.16;1725485;82;21135;-64
2021/08/13 07:51:58;;;;;;;17.30;4.20;;;;;;;25.42;44.58;101541.97;1724754;82;21936;-59
2021/08/13 07:54:25;;;;;;;22.77;12.73;;;;;;;25.53;44.52;101544.31;1759771;80;21686;-59
2021/08/13 07:56:53;;;;;;;14.75;5.47;;;;;;;25.62;44.10;101542.16;1729235;82;21076;-60
2021/08/13 07:59:20;;;;;;;8.90;4.40;;;;;;;25.73;43.44;101560.44;1758199;80;21044;-61
2021/08/13 08:01:49;;;;;;;16.77;4.22;;;;;;;25.76;42.35;101552.45;1757038;79;21166;-60
2021/08/13 08:04:16;;;;;;;18.05;4.80;;;;;;;25.73;42.75;101557.17;1761067;79;21091;-59
2021/08/13 08:06:43;;;;;;;6.60;3.60;;;;;;;25.74;42.70;101557.54;1714592;81;21058;-64
2021/08/13 08:09:10;;;;;;;8.60;3.58;;;;;;;25.76;42.04;101544.21;1728552;81;21091;-59
2021/08/13 08:11:37;;;;;;;6.92;3.40;;;;;;;25.70;41.65;101553.33;1761417;79;21012;-60
2021/08/13 08:14:05;;;;;;;6.05;3.10;;;;;;;25.62;42.28;101539.41;1763643;79;21148;-59
2021/08/13 08:16:32;;;;;;;8.18;3.90;;;;;;;25.64;42.58;101545.63;1760404;80;21160;-61
2021/08/13 08:18:59;;;;;;;14.68;6.25;;;;;;;25.74;42.60;101543.81;1761357;80;21074;-60
2021/08/13 08:21:27;;;;;;;11.03;3.95;;;;;;;25.81;42.14;101558.41;1758044;78;21080;-60
2021/08/13 08:23:54;;;;;;;16.90;9.75;;;;;;;25.79;40.85;101539.81;1759673;80;21584;-59
2021/08/13 08:26:21;;;;;;;11.53;6.45;;;;;;;25.79;41.68;101537.07;1761747;80;21816;-60
2021/08/13 08:28:49;;;;;;;12.55;5.28;;;;;;;25.84;41.81;101545.25;1764421;80;21060;-59
2021/08/13 08:31:16;;;;;;;15.00;5.40;;;;;;;25.95;42.25;101537.44;1762588;80;21084;-59
2021/08/13 08:33:42;;;;;;;9.25;6.20;;;;;;;26.10;41.86;101534.34;1760343;80;21092;-61
2021/08/13 08:36:09;;;;;;;13.72;6.00;;;;;;;26.14;40.63;101545.41;1761555;78;21056;-60
2021/08/13 08:38:37;;;;;;;19.30;10.93;;;;;;;26.12;40.54;101544.69;1756851;80;21095;-59
2021/08/13 08:41:05;;;;;;;12.00;5.17;;;;;;;26.07;40.55;101535.98;1760901;79;20973;-60
2021/08/13 08:43:32;;;;;;;10.23;3.67;;;;;;;26.07;40.30;101539.59;1771588;80;21060;-59
2021/08/13 08:45:59;;;;;;;9.38;4.72;;;;;;;26.11;40.37;101540.20;1757188;80;21521;-59
2021/08/13 08:48:35;;;;;;;6.83;3.58;;;;;;;26.16;40.88;101530.58;1758511;80;21697;-61
2021/08/13 08:51:03;;;;;;;11.60;3.95;;;;;;;26.23;40.07;101526.78;1752817;78;21979;-61
2021/08/13 08:53:30;;;;;;;8.08;4.45;;;;;;;26.28;40.11;101525.86;1761654;80;21119;-61
2021/08/13 08:56:06;;;;;;;19.75;10.80;;;;;;;26.31;40.35;101539.84;1761620;79;21074;-60
2021/08/13 08:58:35;;;;;;;21.20;10.68;;;;;;;26.28;40.68;101533.21;1760677;80;21050;-61
2021/08/13 09:01:01;;;;;;;16.20;8.63;;;;;;;26.33;40.08;101540.56;1719706;82;21059;-61
2021/08/13 09:03:28;;;;;;;8.10;4.20;;;;;;;26.38;40.08;101553.88;1724182;82;21821;-61
2021/08/13 09:05:55;;;;;;;5.85;3.33;;;;;;;26.31;39.45;101548.08;1763618;80;21058;-63
2021/08/13 09:08:24;;;;;;;22.02;9.85;;;;;;;26.24;39.58;101536.77;1725597;80;21023;-61
2021/08/13 09:10:51;;;;;;;12.75;4.92;;;;;;;26.24;39.90;101538.14;1763340;80;21052;-58
2021/08/13 09:13:25;;;;;;;7.45;3.40;;;;;;;26.27;40.14;101528.23;1762821;79;21037;-59
2021/08/13 09:15:53;;;;;;;5.35;2.98;;;;;;;26.27;40.09;101530.10;1766344;79;22727;-61
2021/08/13 09:18:22;;;;;;;6.58;3.30;;;;;;;26.26;39.99;101529.25;1793113;79;20962;-61
2021/08/13 09:20:59;;;;;;;8.58;3.35;;;;;;;26.28;39.36;101554.71;1786035;79;20933;-61
2021/08/13 09:23:40;;;;;;;;;;;;;;;26.30;39.35;101532.56;1785212;79;21072;-62
2021/08/13 09:26:20;;;;;;;5.37;3.10;;;;;;;26.33;39.32;101530.06;1788247;79;20751;-63
2021/08/13 09:29:07;;;;;;;18.15;9.98;;;;;;;26.24;39.60;101536.77;1783639;79;21191;-61
2021/08/13 09:31:38;;;;;;;17.37;10.82;;;;;;;26.22;40.03;101531.91;1767425;79;21177;-61
2021/08/13 09:34:11;;;;;;;14.75;6.22;;;;;;;26.25;40.24;101538.50;1783893;79;21612;-62
2021/08/13 09:36:51;;;;;;;31.85;8.95;;;;;;;26.34;39.83;101523.55;1781517;78;20992;-62
2021/08/13 09:39:28;;;;;;;17.62;11.18;;;;;;;26.50;39.29;101532.16;1788312;78;21280;-61
2021/08/13 09:41:57;;;;;;;12.98;7.08;;;;;;;26.58;36.67;101544.69;1778628;79;21074;-62
2021/08/13 09:44:38;;;;;;;7.95;4.25;;;;;;;26.51;36.88;101539.39;1788546;79;21554;-62
2021/08/13 09:47:10;;;;;;;8.43;5.65;;;;;;;26.47;35.73;101540.69;1780718;79;21077;-61
2021/08/13 09:49:42;;;;;;;10.03;7.60;;;;;;;26.43;35.64;101539.23;1788767;79;21589;-61
2021/08/13 09:52:17;;;;;;;28.10;6.15;;;;;;;26.46;35.73;101548.56;1777420;78;21061;-62
2021/08/13 09:54:49;;;;;;;27.17;6.17;;;;;;;26.46;36.14;101576.06;1777641;79;21546;-62
2021/08/13 09:57:17;;;;;;;25.23;6.28;;;;;;;26.39;36.72;101530.88;1787057;79;21044;-62
2021/08/13 10:00:04;;;;;;;13.58;6.30;;;;;;;26.40;37.77;101536.73;1789132;79;20957;-65
2021/08/13 10:02:45;;;;;;;13.43;4.03;;;;;;;26.50;38.35;101537.66;1793814;79;21224;-62
2021/08/13 10:05:25;;;;;;;5.87;3.33;;;;;;;26.54;37.42;101533.61;1729510;82;21163;-60
2021/08/13 10:08:01;;;;;;;5.35;3.10;;;;;;;26.50;36.84;101534.91;1710439;82;21562;-61
2021/08/13 10:10:35;;;;;;;6.87;3.20;;;;;;;26.40;36.83;101554.59;1732211;82;21310;-62
2021/08/13 10:13:05;;;;;;;6.08;3.37;;;;;;;26.31;37.61;101534.34;1731616;82;21104;-62
2021/08/13 10:15:39;;;;;;;8.85;4.42;;;;;;;26.30;38.28;101514.21;1731630;81;21020;-60
2021/08/13 10:18:12;;;;;;;8.65;3.70;;;;;;;26.47;39.04;101518.69;1750391;81;21055;-60
2021/08/13 10:20:43;;;;;;;7.20;3.30;;;;;;;26.60;39.39;101520.66;1780656;80;21444;-59
2021/08/13 10:23:10;;;;;;;3.62;2.60;;;;;;;26.66;39.37;101512.89;1766294;80;22452;-61
2021/08/13 10:25:38;;;;;;;10.65;7.45;;;;;;;26.68;38.17;101517.73;1767984;80;21035;-60
2021/08/13 10:28:05;;;;;;;13.78;5.53;;;;;;;26.65;37.96;101524.90;1822918;78;21003;-62
2021/08/13 10:30:34;;;;;;;7.78;3.70;;;;;;;26.63;38.17;101506.27;1801519;78;21567;-61
2021/08/13 10:33:07;;;;;;;11.88;5.50;;;;;;;26.60;38.36;101527.54;1804012;78;21124;-61
2021/08/13 10:35:45;;;;;;;15.98;11.93;;;;;;;26.50;38.44;101518.90;1797402;78;21043;-62
2021/08/13 10:38:12;;;;;;;20.68;13.50;;;;;;;26.48;38.50;101509.43;1803655;78;21039;-61
2021/08/13 10:40:41;;;;;;;24.82;6.72;;;;;;;26.53;38.82;101517.27;1803265;78;22176;-61
2021/08/13 10:43:11;;;;;;;25.92;5.03;;;;;;;26.62;38.46;101519.66;1776624;78;21126;-60
2021/08/13 10:45:38;;;;;;;15.75;4.85;;;;;;;26.64;38.57;101518.52;1804413;78;21082;-61
2021/08/13 10:48:12;;;;;;;14.87;4.90;;;;;;;26.71;38.04;101542.20;1801149;78;21623;-61
2021/08/13 10:50:40;;;;;;;11.33;4.40;;;;;;;26.64;37.58;101524.02;1737137;80;21531;-60
2021/08/13 10:53:32;;;;;;;8.43;2.90;;;;;;;26.62;37.76;101511.41;1768470;80;21493;-61
2021/08/13 10:56:03;;;;;;;10.18;5.05;;;;;;;26.63;37.35;101511.77;1767328;79;21048;-62
2021/08/13 10:58:40;;;;;;;11.70;6.85;;;;;;;26.66;37.70;101523.89;1802696;78;21087;-61
2021/08/13 11:01:18;;;;;;;14.75;7.10;;;;;;;26.71;37.26;101524.33;1799118;78;21018;-60
2021/08/13 11:04:11;;;;;;;12.53;5.80;;;;;;;26.74;37.38;101510.28;1805293;78;21510;-60
2021/08/13 11:06:42;;;;;;;8.45;4.62;;;;;;;26.75;37.71;101514.77;1796081;78;21009;-60
2021/08/13 11:09:24;;;;;;;;;;;;;;;26.77;37.42;101506.39;1806090;78;20999;-61
2021/08/13 11:12:03;;;;;;;12.00;3.22;;;;;;;26.72;37.86;101490.30;1775105;78;39407;-60
2021/08/13 11:14:33;;;;;;;8.15;4.42;;;;;;;26.71;38.14;101530.67;1800162;78;21512;-62
2021/08/13 11:17:00;;;;;;;6.50;3.40;;;;;;;26.72;38.48;101515.91;1798938;78;20963;-60
2021/08/13 11:19:29;;;;;;;10.32;4.10;;;;;;;26.75;38.15;101503.77;1780519;79;21406;-60
2021/08/13 11:22:00;;;;;;;14.53;7.37;;;;;;;26.83;38.31;101511.31;1741892;79;20957;-60
2021/08/13 11:24:52;;;;;;;12.70;7.42;;;;;;;26.93;38.35;101517.72;1783820;79;21117;-61
2021/08/13 11:27:21;;;;;;;12.33;4.53;;;;;;;26.95;37.47;101509.34;1779397;79;21157;-62
2021/08/13 11:29:50;;;;;;;10.53;3.77;;;;;;;26.94;38.20;101500.72;1778787;79;21059;-62
2021/08/13 11:32:37;;;;;;;7.58;2.42;;;;;;;27.00;38.34;101504.27;1785044;79;21159;-60
2021/08/13 11:35:09;;;;;;;6.42;3.15;;;;;;;27.00;37.58;101505.64;1785269;79;21066;-61
2021/08/13 11:37:46;;;;;;;7.10;2.55;;;;;;;26.95;37.97;101525.84;1776315;79;21490;-62